Serval — J8B4154 — position and weather

sailwx.info

Track history (hours):
 
Tides and Currents Weather Stations Pressure Air Temp Water Temp Dewpoint Dewpoint Depression Visibility Wind Speed Wind Dir Waves Ship Positions

Serval

Last reported at 2015-Aug-31 21:23 UTC. Time now 2015-Aug-31 21:53 UTC.
Position N 53°58' E 006°56'.

Length 30 m; draft 4.6 m.

Type: . MMSI: 377103000.

Date/timePositionNaut miles runAvg speedWind from/ knotsBaromVisibWave heightAir tempDewpointWater temp
2015-Aug-31 21:23N 53°58' E 006°56'1 0.7
2015-Aug-31 20:33N 53°58' E 006°57'3 3.0
2015-Aug-31 19:32N 53°58' E 006°52'3 3.0
2015-Aug-31 18:33N 53°58' E 006°57'2 1.3
2015-Aug-31 17:23N 53°58' E 006°55'1 1.2
2015-Aug-31 16:24N 53°57' E 006°53'3 3.1
2015-Aug-31 15:30N 53°58' E 006°57'2 1.7
2015-Aug-31 14:07N 53°57' E 006°53'2 3.6
2015-Aug-31 13:30N 53°58' E 006°57'2 1.8
2015-Aug-31 12:20N 53°58' E 006°54'1 0.5
2015-Aug-31 10:33N 53°58' E 006°55'2 1.8
2015-Aug-31 09:32N 53°58' E 006°58'3 2.9
2015-Aug-31 08:32N 53°57' E 006°53'1 1.5
2015-Aug-31 07:33N 53°58' E 006°55'1 0.5
2015-Aug-31 06:17N 53°58' E 006°54'1 0.9
2015-Aug-31 05:31N 53°58' E 006°53'2 2.1
2015-Aug-31 04:33N 53°58' E 006°57'2 1.7
2015-Aug-31 03:33N 53°58' E 006°54'1 0.3
2015-Aug-31 00:32N 53°58' E 006°56'0 0.3
2015-Aug-30 23:30N 53°58' E 006°55'0 0.5
2015-Aug-30 22:28N 53°58' E 006°56'0 0.5
2015-Aug-30 21:32N 53°58' E 006°55'2 1.5
2015-Aug-30 20:29N 53°58' E 006°58'2 2.0
2015-Aug-30 19:22N 53°58' E 006°54'2 2.6
2015-Aug-30 18:33N 53°58' E 006°58'2 2.0
2015-Aug-30 17:33N 53°58' E 006°54'1 0.7
2015-Aug-30 15:27N 53°58' E 006°57'2 0.4
2015-Aug-30 09:30N 53°58' E 006°53'1 1.1
2015-Aug-30 08:29N 53°58' E 006°55'1 1.2
2015-Aug-30 07:33N 53°58' E 006°57'1 1.3
2015-Aug-30 06:31N 53°58' E 006°55'0 0.2
2015-Aug-30 05:33N 53°58' E 006°55'1 1.4
2015-Aug-30 04:32N 53°58' E 006°57'1 1.3
2015-Aug-30 03:24N 53°57' E 006°55'1 0.4
2015-Aug-30 01:14N 53°57' E 006°53'2 1.1
2015-Aug-29 23:25N 53°58' E 006°56'0 0.4
2015-Aug-29 22:26N 53°58' E 006°56'0 0.2
2015-Aug-29 21:26N 53°58' E 006°56'1 0.9
2015-Aug-29 20:27N 53°58' E 006°58'1 1.2
2015-Aug-29 19:28N 53°58' E 006°56'1 0.5
2015-Aug-29 18:28N 53°58' E 006°55'2 1.6
2015-Aug-29 17:31N 53°58' E 006°57'3 1.4
2015-Aug-29 15:31N 53°58' E 006°53'1 0.5
2015-Aug-29 13:24N 53°58' E 006°54'0 0.2
2015-Aug-29 11:26N 53°58' E 006°55'1 0.5
2015-Aug-29 09:06N 53°58' E 006°57'0 0.4
2015-Aug-29 08:33N 53°58' E 006°57'2 1.4
2015-Aug-29 07:29N 53°58' E 006°55'2 1.7
2015-Aug-29 06:32N 53°58' E 006°57'2 0.8
2015-Aug-29 04:33N 53°58' E 006°55'0 0.3
2015-Aug-29 03:16N 53°57' E 006°55'1 1.7
2015-Aug-29 02:30N 53°58' E 006°57'2 1.7
2015-Aug-29 01:14N 53°57' E 006°53'2 3.4
2015-Aug-29 00:32N 53°58' E 006°57'2 1.6
2015-Aug-28 23:22N 53°58' E 006°54'0 0.2
2015-Aug-28 21:32N 53°58' E 006°54'1 1.4
2015-Aug-28 20:33N 53°58' E 006°56'1 0.7
2015-Aug-28 19:27N 53°58' E 006°57'2 2.1
2015-Aug-28 18:33N 53°58' E 006°54'1 1.1
2015-Aug-28 17:32N 53°58' E 006°56'1 0.6
2015-Aug-28 16:33N 53°58' E 006°57'1 0.7
2015-Aug-28 15:21N 53°58' E 006°56'0 0.4
2015-Aug-28 14:06N 53°57' E 006°55'1 2.3
2015-Aug-28 13:32N 53°58' E 006°57'1 1.3
2015-Aug-28 12:33N 53°58' E 006°55'1 0.4
2015-Aug-28 09:33N 53°58' E 006°56'1 0.6
2015-Aug-28 08:29N 53°58' E 006°55'0 0.2
2015-Aug-28 07:24N 53°58' E 006°55'1 0.8
2015-Aug-28 06:33N 53°58' E 006°57'1 0.8
2015-Aug-28 05:29N 53°58' E 006°58'3 2.5
2015-Aug-28 04:19N 53°57' E 006°53'2 2.2
2015-Aug-28 03:25N 53°58' E 006°56'1 0.8
2015-Aug-28 02:12N 53°58' E 006°55'2 1.9
2015-Aug-28 01:23N 53°58' E 006°57'2 2.3
2015-Aug-28 00:32N 53°58' E 006°54'2 1.7
2015-Aug-27 23:33N 53°58' E 006°57'0 0.2
2015-Aug-27 22:30N 53°58' E 006°57'2 1.5
2015-Aug-27 21:26N 53°58' E 006°55'1 0.9
2015-Aug-27 20:32N 53°58' E 006°56'1 1.3
2015-Aug-27 19:33N 53°58' E 006°58'3 2.8
2015-Aug-27 18:31N 53°57' E 006°53'1 0.8
2015-Aug-27 17:26N 53°58' E 006°55'1 0.9
2015-Aug-27 16:29N 53°58' E 006°56'1 1.2
2015-Aug-27 15:33N 53°58' E 006°58'1 0.2
2015-Aug-27 09:33N 53°58' E 006°55'1 0.5
2015-Aug-27 07:29N 53°58' E 006°54'1 1.2
2015-Aug-27 06:32N 53°58' E 006°56'1 1.2
2015-Aug-27 05:24N 53°58' E 006°58'2 2.3
2015-Aug-27 04:30N 53°58' E 006°55'1 1.2
2015-Aug-27 03:26N 53°58' E 006°57'0 0.0
2015-Aug-27 02:33N 53°58' E 006°57'0 0.1
2015-Aug-27 01:32N 53°58' E 006°57'1 1.2
2015-Aug-27 00:26N 53°57' E 006°55'2 1.6
2015-Aug-26 23:28N 53°58' E 006°57'1 0.7
2015-Aug-26 22:29N 53°58' E 006°56'1 0.8
2015-Aug-26 21:20N 53°58' E 006°55'1 0.4
2015-Aug-26 20:06N 53°58' E 006°54'1 1.7
2015-Aug-26 19:31N 53°58' E 006°56'1 0.9
2015-Aug-26 18:33N 53°59' E 006°55'1 0.8
2015-Aug-26 17:26N 53°59' E 006°54'2 1.9
2015-Aug-26 16:27N 54°00' E 006°55'3 2.6
2015-Aug-26 15:22N 53°58' E 006°54'1 0.6
2015-Aug-26 14:33N 53°58' E 006°54'1 0.8
2015-Aug-26 13:11N 53°59' E 006°54'1 0.3
2015-Aug-26 11:15N 53°59' E 006°53'1 0.3
2015-Aug-26 06:33N 53°57' E 006°54'2 1.7
2015-Aug-26 05:32N 53°58' E 006°57'0 0.2
2015-Aug-26 04:29N 53°58' E 006°57'2 2.0
2015-Aug-26 03:31N 53°58' E 006°54'1 0.4
2015-Aug-26 01:30N 53°57' E 006°53'0 0.1
2015-Aug-26 00:12N 53°57' E 006°53'1 2.1
2015-Aug-25 23:31N 53°59' E 006°53'2 2.4
2015-Aug-25 22:33N 53°58' E 006°57'2 0.8
2015-Aug-25 20:31N 53°57' E 006°54'3 2.6
2015-Aug-25 19:33N 53°58' E 006°58'3 2.4
2015-Aug-25 18:25N 53°57' E 006°54'2 2.0
2015-Aug-25 17:33N 53°58' E 006°56'1 0.7
2015-Aug-25 16:29N 53°58' E 006°55'0 0.3
2015-Aug-25 15:30N 53°57' E 006°55'  
2015-Aug-23 03:26N 53°58' E 006°56'1 0.9
2015-Aug-23 02:30N 53°58' E 006°55'1 1.3
2015-Aug-23 01:26N 53°58' E 006°57'0 0.0
2015-Aug-22 06:24N 53°58' E 006°57'0 0.1
2015-Aug-22 02:17N 53°58' E 006°57'  
Track history (hours):
 
Tides and Currents Weather Stations Pressure Air Temp Water Temp Dewpoint Dewpoint Depression Visibility Wind Speed Wind Dir Waves Ship Positions

Serval

Last reported at 2015-Aug-31 21:23 UTC. Time now 2015-Aug-31 21:53 UTC.
Position N 53°58' E 006°56'.

Length 30 m; draft 4.6 m.

Type: . MMSI: 377103000.

Date/timePositionNaut miles runAvg speedWind from/ knotsBaromVisibWave heightAir tempDewpointWater temp
2015-Aug-31 21:23N 53°58' E 006°56'1 0.7
2015-Aug-31 20:33N 53°58' E 006°57'3 3.0
2015-Aug-31 19:32N 53°58' E 006°52'3 3.0
2015-Aug-31 18:33N 53°58' E 006°57'2 1.3
2015-Aug-31 17:23N 53°58' E 006°55'1 1.2
2015-Aug-31 16:24N 53°57' E 006°53'3 3.1
2015-Aug-31 15:30N 53°58' E 006°57'2 1.7
2015-Aug-31 14:07N 53°57' E 006°53'2 3.6
2015-Aug-31 13:30N 53°58' E 006°57'2 1.8
2015-Aug-31 12:20N 53°58' E 006°54'1 0.5
2015-Aug-31 10:33N 53°58' E 006°55'2 1.8
2015-Aug-31 09:32N 53°58' E 006°58'3 2.9
2015-Aug-31 08:32N 53°57' E 006°53'1 1.5
2015-Aug-31 07:33N 53°58' E 006°55'1 0.5
2015-Aug-31 06:17N 53°58' E 006°54'1 0.9
2015-Aug-31 05:31N 53°58' E 006°53'2 2.1
2015-Aug-31 04:33N 53°58' E 006°57'2 1.7
2015-Aug-31 03:33N 53°58' E 006°54'1 0.3
2015-Aug-31 00:32N 53°58' E 006°56'0 0.3
2015-Aug-30 23:30N 53°58' E 006°55'0 0.5
2015-Aug-30 22:28N 53°58' E 006°56'0 0.5
2015-Aug-30 21:32N 53°58' E 006°55'2 1.5
2015-Aug-30 20:29N 53°58' E 006°58'2 2.0
2015-Aug-30 19:22N 53°58' E 006°54'2 2.6
2015-Aug-30 18:33N 53°58' E 006°58'2 2.0
2015-Aug-30 17:33N 53°58' E 006°54'1 0.7
2015-Aug-30 15:27N 53°58' E 006°57'2 0.4
2015-Aug-30 09:30N 53°58' E 006°53'1 1.1
2015-Aug-30 08:29N 53°58' E 006°55'1 1.2
2015-Aug-30 07:33N 53°58' E 006°57'1 1.3
2015-Aug-30 06:31N 53°58' E 006°55'0 0.2
2015-Aug-30 05:33N 53°58' E 006°55'1 1.4
2015-Aug-30 04:32N 53°58' E 006°57'1 1.3
2015-Aug-30 03:24N 53°57' E 006°55'1 0.4
2015-Aug-30 01:14N 53°57' E 006°53'2 1.1
2015-Aug-29 23:25N 53°58' E 006°56'0 0.4
2015-Aug-29 22:26N 53°58' E 006°56'0 0.2
2015-Aug-29 21:26N 53°58' E 006°56'1 0.9
2015-Aug-29 20:27N 53°58' E 006°58'1 1.2
2015-Aug-29 19:28N 53°58' E 006°56'1 0.5
2015-Aug-29 18:28N 53°58' E 006°55'2 1.6
2015-Aug-29 17:31N 53°58' E 006°57'3 1.4
2015-Aug-29 15:31N 53°58' E 006°53'1 0.5
2015-Aug-29 13:24N 53°58' E 006°54'0 0.2
2015-Aug-29 11:26N 53°58' E 006°55'1 0.5
2015-Aug-29 09:06N 53°58' E 006°57'0 0.4
2015-Aug-29 08:33N 53°58' E 006°57'2 1.4
2015-Aug-29 07:29N 53°58' E 006°55'2 1.7
2015-Aug-29 06:32N 53°58' E 006°57'2 0.8
2015-Aug-29 04:33N 53°58' E 006°55'0 0.3
2015-Aug-29 03:16N 53°57' E 006°55'1 1.7
2015-Aug-29 02:30N 53°58' E 006°57'2 1.7
2015-Aug-29 01:14N 53°57' E 006°53'2 3.4
2015-Aug-29 00:32N 53°58' E 006°57'2 1.6
2015-Aug-28 23:22N 53°58' E 006°54'0 0.2
2015-Aug-28 21:32N 53°58' E 006°54'1 1.4
2015-Aug-28 20:33N 53°58' E 006°56'1 0.7
2015-Aug-28 19:27N 53°58' E 006°57'2 2.1
2015-Aug-28 18:33N 53°58' E 006°54'1 1.1
2015-Aug-28 17:32N 53°58' E 006°56'1 0.6
2015-Aug-28 16:33N 53°58' E 006°57'1 0.7
2015-Aug-28 15:21N 53°58' E 006°56'0 0.4
2015-Aug-28 14:06N 53°57' E 006°55'1 2.3
2015-Aug-28 13:32N 53°58' E 006°57'1 1.3
2015-Aug-28 12:33N 53°58' E 006°55'1 0.4
2015-Aug-28 09:33N 53°58' E 006°56'1 0.6
2015-Aug-28 08:29N 53°58' E 006°55'0 0.2
2015-Aug-28 07:24N 53°58' E 006°55'1 0.8
2015-Aug-28 06:33N 53°58' E 006°57'1 0.8
2015-Aug-28 05:29N 53°58' E 006°58'3 2.5
2015-Aug-28 04:19N 53°57' E 006°53'2 2.2
2015-Aug-28 03:25N 53°58' E 006°56'1 0.8
2015-Aug-28 02:12N 53°58' E 006°55'2 1.9
2015-Aug-28 01:23N 53°58' E 006°57'2 2.3
2015-Aug-28 00:32N 53°58' E 006°54'2 1.7
2015-Aug-27 23:33N 53°58' E 006°57'0 0.2
2015-Aug-27 22:30N 53°58' E 006°57'2 1.5
2015-Aug-27 21:26N 53°58' E 006°55'1 0.9
2015-Aug-27 20:32N 53°58' E 006°56'1 1.3
2015-Aug-27 19:33N 53°58' E 006°58'3 2.8
2015-Aug-27 18:31N 53°57' E 006°53'1 0.8
2015-Aug-27 17:26N 53°58' E 006°55'1 0.9
2015-Aug-27 16:29N 53°58' E 006°56'1 1.2
2015-Aug-27 15:33N 53°58' E 006°58'1 0.2
2015-Aug-27 09:33N 53°58' E 006°55'1 0.5
2015-Aug-27 07:29N 53°58' E 006°54'1 1.2
2015-Aug-27 06:32N 53°58' E 006°56'1 1.2
2015-Aug-27 05:24N 53°58' E 006°58'2 2.3
2015-Aug-27 04:30N 53°58' E 006°55'1 1.2
2015-Aug-27 03:26N 53°58' E 006°57'0 0.0
2015-Aug-27 02:33N 53°58' E 006°57'0 0.1
2015-Aug-27 01:32N 53°58' E 006°57'1 1.2
2015-Aug-27 00:26N 53°57' E 006°55'2 1.6
2015-Aug-26 23:28N 53°58' E 006°57'1 0.7
2015-Aug-26 22:29N 53°58' E 006°56'1 0.8
2015-Aug-26 21:20N 53°58' E 006°55'1 0.4
2015-Aug-26 20:06N 53°58' E 006°54'1 1.7
2015-Aug-26 19:31N 53°58' E 006°56'1 0.9
2015-Aug-26 18:33N 53°59' E 006°55'1 0.8
2015-Aug-26 17:26N 53°59' E 006°54'2 1.9
2015-Aug-26 16:27N 54°00' E 006°55'3 2.6
2015-Aug-26 15:22N 53°58' E 006°54'1 0.6
2015-Aug-26 14:33N 53°58' E 006°54'1 0.8
2015-Aug-26 13:11N 53°59' E 006°54'1 0.3
2015-Aug-26 11:15N 53°59' E 006°53'1 0.3
2015-Aug-26 06:33N 53°57' E 006°54'2 1.7
2015-Aug-26 05:32N 53°58' E 006°57'0 0.2
2015-Aug-26 04:29N 53°58' E 006°57'2 2.0
2015-Aug-26 03:31N 53°58' E 006°54'1 0.4
2015-Aug-26 01:30N 53°57' E 006°53'0 0.1
2015-Aug-26 00:12N 53°57' E 006°53'1 2.1
2015-Aug-25 23:31N 53°59' E 006°53'2 2.4
2015-Aug-25 22:33N 53°58' E 006°57'2 0.8
2015-Aug-25 20:31N 53°57' E 006°54'3 2.6
2015-Aug-25 19:33N 53°58' E 006°58'3 2.4
2015-Aug-25 18:25N 53°57' E 006°54'2 2.0
2015-Aug-25 17:33N 53°58' E 006°56'1 0.7
2015-Aug-25 16:29N 53°58' E 006°55'0 0.3
2015-Aug-25 15:30N 53°57' E 006°55'  
2015-Aug-23 03:26N 53°58' E 006°56'1 0.9
2015-Aug-23 02:30N 53°58' E 006°55'1 1.3
2015-Aug-23 01:26N 53°58' E 006°57'0 0.0
2015-Aug-22 06:24N 53°58' E 006°57'0 0.1
2015-Aug-22 02:17N 53°58' E 006°57'  

Dump ship's entire track history